Time;durP1;ratioP1;P1;durP2;ratioP2;P2;SDS_P1;SDS_P2;PMS_P1;PMS_P2;Temp;Humidity;BMP_temperature;BMP_pressure;BME280_temperature;BME280_humidity;BME280_pressure;Samples;Min_cycle;Max_cycle;Signal;HPM_P1;HPM_P2
2022/02/13 00:01:03;;;;;;;42.80;20.80;;;;;;;-2.39;68.77;101491.20;107846;1270;111375;-70
2022/02/13 00:03:35;;;;;;;41.80;20.80;;;;;;;-2.42;68.69;101485.97;107809;1270;109227;-70
2022/02/13 00:06:07;;;;;;;43.80;21.10;;;;;;;-2.45;68.56;101481.41;107702;1270;138716;-70
2022/02/13 00:08:40;;;;;;;39.40;19.20;;;;;;;-2.50;68.92;101481.59;107796;1270;99707;-71
2022/02/13 00:11:17;;;;;;;41.50;19.40;;;;;;;-2.52;68.91;101482.65;107711;1270;139632;-69
2022/02/13 00:13:50;;;;;;;39.70;19.60;;;;;;;-2.54;69.20;101478.85;107821;1270;112499;-70
2022/02/13 00:16:22;;;;;;;37.10;19.30;;;;;;;-2.53;68.82;101472.24;107708;1271;139067;-71
2022/02/13 00:18:54;;;;;;;46.60;20.40;;;;;;;-2.53;69.01;101471.56;107820;1271;108893;-70
2022/02/13 00:21:46;;;;;;;42.30;20.90;;;;;;;-2.54;69.39;101469.61;107800;1271;95979;-71
2022/02/13 00:24:18;;;;;;;40.50;21.30;;;;;;;-2.57;69.13;101467.30;107736;1270;138733;-70
2022/02/13 00:26:50;;;;;;;42.70;21.10;;;;;;;-2.61;68.92;101465.95;106998;1271;111539;-70
2022/02/13 00:29:26;;;;;;;42.00;20.10;;;;;;;-2.64;68.84;101461.23;106168;1270;139293;-70
2022/02/13 00:31:58;;;;;;;40.20;19.90;;;;;;;-2.68;68.96;101459.70;106270;1271;109436;-70
2022/02/13 00:34:30;;;;;;;43.20;22.00;;;;;;;-2.72;69.48;101453.58;106362;1271;139287;-69
2022/02/13 00:37:03;;;;;;;42.00;21.80;;;;;;;-2.71;69.18;101452.59;106264;1271;97827;-70
2022/02/13 00:39:35;;;;;;;46.90;21.10;;;;;;;-2.71;69.09;101453.80;107806;1270;111468;-70
2022/02/13 00:42:08;;;;;;;48.90;23.50;;;;;;;-2.71;69.38;101448.50;107651;1272;139113;-70
2022/02/13 00:44:40;;;;;;;46.30;23.00;;;;;;;-2.72;69.10;101445.75;107763;1271;109333;-70
2022/02/13 00:47:13;;;;;;;48.00;22.50;;;;;;;-2.75;69.22;101443.61;107574;1270;138454;-70
2022/02/13 00:49:45;;;;;;;46.20;21.80;;;;;;;-2.78;69.34;101435.84;107843;1270;96116;-70
2022/02/13 00:52:17;;;;;;;46.60;22.10;;;;;;;-2.80;69.17;101431.65;107817;1270;110796;-70
2022/02/13 00:54:49;;;;;;;46.30;22.80;;;;;;;-2.81;69.46;101430.24;107690;1270;139178;-71
2022/02/13 00:57:21;;;;;;;43.00;22.00;;;;;;;-2.81;69.68;101420.88;107819;1270;105860;-69
2022/02/13 00:59:52;;;;;;;45.60;22.40;;;;;;;-2.80;69.35;101417.20;107606;1271;138880;-70
2022/02/13 01:02:24;;;;;;;46.30;23.30;;;;;;;-2.79;69.88;101412.27;107812;1271;96159;-69
2022/02/13 01:04:59;;;;;;;44.70;22.20;;;;;;;-2.80;69.64;101406.28;107723;1270;139647;-69
2022/02/13 01:07:30;;;;;;;48.90;22.80;;;;;;;-2.82;69.26;101396.34;107820;1270;109067;-69
2022/02/13 01:10:03;;;;;;;51.60;22.60;;;;;;;-2.86;69.42;101393.13;107825;1271;109353;-69
2022/02/13 01:12:36;;;;;;;45.00;22.90;;;;;;;-2.90;69.84;101396.35;106206;1271;138323;-69
2022/02/13 01:15:08;;;;;;;42.90;21.80;;;;;;;-2.93;69.68;101383.61;106783;1271;97818;-69
2022/02/13 01:17:40;;;;;;;41.40;20.70;;;;;;;-2.96;69.58;101386.77;107699;1271;138814;-70
2022/02/13 01:20:13;;;;;;;42.50;20.50;;;;;;;-2.97;70.02;101377.86;107816;1271;109665;-70
2022/02/13 01:22:45;;;;;;;42.40;19.50;;;;;;;-2.96;69.94;101372.44;107691;1271;138942;-70
2022/02/13 01:25:17;;;;;;;44.70;21.80;;;;;;;-2.95;70.12;101362.43;107847;1270;96046;-70
2022/02/13 01:27:49;;;;;;;44.30;22.00;;;;;;;-2.95;69.95;101361.42;107838;1270;96264;-69
2022/02/13 01:30:22;;;;;;;47.10;23.00;;;;;;;-2.96;70.15;101351.67;107714;1270;138098;-68
2022/02/13 01:32:54;;;;;;;43.40;22.40;;;;;;;-2.99;70.10;101344.60;107860;1270;107697;-69
2022/02/13 01:35:26;;;;;;;45.90;22.00;;;;;;;-3.03;70.46;101343.08;107681;1270;138087;-70
2022/02/13 01:37:58;;;;;;;45.90;20.60;;;;;;;-3.06;69.98;101341.29;107792;1270;96020;-69
2022/02/13 01:40:30;;;;;;;46.10;19.90;;;;;;;-3.07;70.29;101335.58;107731;1270;140587;-69
2022/02/13 01:43:02;;;;;;;40.70;20.40;;;;;;;-3.06;70.62;101331.72;107815;1270;112768;-69
2022/02/13 01:45:34;;;;;;;43.70;20.50;;;;;;;-3.04;70.40;101322.11;107837;1270;107688;-70
2022/02/13 01:48:08;;;;;;;43.00;20.90;;;;;;;-3.01;70.27;101325.27;107700;1271;139219;-70
2022/02/13 01:50:41;;;;;;;40.70;21.60;;;;;;;-3.02;70.49;101313.16;107810;1270;96234;-70
2022/02/13 01:53:33;;;;;;;43.30;20.70;;;;;;;-3.04;70.39;101311.23;107699;1271;138727;-70
2022/02/13 01:56:06;;;;;;;39.80;19.90;;;;;;;-3.06;70.70;101308.44;107825;1270;111510;-70
2022/02/13 01:58:38;;;;;;;37.90;18.60;;;;;;;-3.07;70.37;101307.02;107685;1270;139909;-69
2022/02/13 02:01:13;;;;;;;39.00;19.70;;;;;;;-3.06;70.48;101302.27;107791;1270;107909;-69
2022/02/13 02:03:46;;;;;;;37.90;19.40;;;;;;;-3.03;70.40;101305.83;107829;1271;95993;-70
2022/02/13 02:06:19;;;;;;;41.10;19.90;;;;;;;-3.00;70.50;101299.45;107677;1271;138000;-70
2022/02/13 02:08:51;;;;;;;45.40;20.40;;;;;;;-2.99;70.01;101296.12;107860;1271;112144;-70
2022/02/13 02:11:24;;;;;;;43.10;20.50;;;;;;;-2.98;70.00;101296.80;107729;1270;138114;-70
2022/02/13 02:13:56;;;;;;;39.20;19.90;;;;;;;-3.00;69.89;101287.05;107803;1271;107719;-70
2022/02/13 02:16:29;;;;;;;42.10;19.90;;;;;;;-3.00;70.02;101291.12;107727;1271;139269;-70
2022/02/13 02:19:01;;;;;;;39.40;18.60;;;;;;;-3.02;69.97;101288.34;106445;1271;97827;-69
2022/02/13 02:21:34;;;;;;;42.30;19.10;;;;;;;-3.03;69.95;101282.33;106248;1271;112643;-70
2022/02/13 02:24:12;;;;;;;40.90;19.60;;;;;;;-3.01;70.13;101285.79;106963;1269;138844;-69
2022/02/13 02:26:46;;;;;;;42.80;19.80;;;;;;;-3.00;69.84;101278.52;106279;1271;108704;-69
2022/02/13 02:29:19;;;;;;;38.10;20.50;;;;;;;-3.00;69.79;101277.70;106105;1271;138141;-70
2022/02/13 02:31:51;;;;;;;44.40;20.70;;;;;;;-3.01;69.78;101279.86;106283;1271;97873;-69
2022/02/13 02:34:22;;;;;;;41.40;20.60;;;;;;;-3.04;69.78;101276.20;106102;1271;121063;-69
2022/02/13 02:36:54;;;;;;;46.50;21.50;;;;;;;-3.07;69.90;101276.04;106173;1271;138299;-70
2022/02/13 02:39:27;;;;;;;46.00;21.00;;;;;;;-3.09;70.11;101276.47;106264;1271;109060;-71
2022/02/13 02:42:00;;;;;;;41.60;19.30;;;;;;;-3.11;69.96;101266.53;106117;1271;139540;-70
2022/02/13 02:44:33;;;;;;;45.10;19.60;;;;;;;-3.12;69.90;101269.91;106291;1271;97800;-69
2022/02/13 02:47:06;;;;;;;42.10;21.10;;;;;;;-3.10;70.01;101262.82;106201;1271;139437;-70
2022/02/13 02:49:38;;;;;;;45.10;21.10;;;;;;;-3.10;70.18;101259.59;107806;1270;107829;-70
2022/02/13 02:52:10;;;;;;;44.70;20.20;;;;;;;-3.10;70.08;101257.04;107794;1270;108988;-69
2022/02/13 02:54:42;;;;;;;46.90;22.10;;;;;;;-3.12;70.17;101253.59;107239;1271;138046;-69
2022/02/13 02:57:15;;;;;;;42.90;21.40;;;;;;;-3.13;69.98;101257.11;107225;1271;97595;-70
2022/02/13 02:59:46;;;;;;;42.80;20.00;;;;;;;-3.16;69.98;101247.48;107706;1270;138454;-69
2022/02/13 03:02:18;;;;;;;43.20;20.10;;;;;;;-3.18;70.03;101244.17;106695;1258;109274;-69
2022/02/13 03:04:50;;;;;;;42.00;19.00;;;;;;;-3.19;70.05;101241.41;105838;1273;139101;-69
2022/02/13 03:07:22;;;;;;;41.30;19.90;;;;;;;-3.19;69.92;101240.06;106154;1271;99048;-69
2022/02/13 03:09:54;;;;;;;42.30;20.80;;;;;;;-3.18;69.97;101241.27;106130;1271;97804;-70
2022/02/13 03:12:26;;;;;;;43.50;21.40;;;;;;;-3.19;69.98;101234.40;106077;1270;138431;-69
2022/02/13 03:14:59;;;;;;;44.70;20.70;;;;;;;-3.22;69.89;101232.45;106186;1270;108575;-70
2022/02/13 03:17:30;;;;;;;42.50;21.00;;;;;;;-3.25;70.06;101228.20;106067;1270;138287;-70
2022/02/13 03:20:09;;;;;;;36.70;19.30;;;;;;;-3.29;70.13;101220.05;106082;1271;97827;-69
2022/02/13 03:22:41;;;;;;;40.30;19.70;;;;;;;-3.34;70.05;101221.24;106821;1271;140040;-70
2022/02/13 03:25:14;;;;;;;38.30;18.80;;;;;;;-3.37;70.07;101219.94;107815;1270;111117;-69
2022/02/13 03:27:46;;;;;;;41.70;19.50;;;;;;;-3.37;70.25;101215.50;107799;1270;106778;-69
2022/02/13 03:30:19;;;;;;;43.10;20.30;;;;;;;-3.37;70.42;101221.30;106712;1270;138245;-69
2022/02/13 03:32:51;;;;;;;41.70;20.20;;;;;;;-3.37;70.21;101212.95;106165;1271;97840;-69
2022/02/13 03:35:23;;;;;;;39.10;20.40;;;;;;;-3.39;70.25;101216.29;106029;1271;138237;-70
2022/02/13 03:37:56;;;;;;;43.10;20.00;;;;;;;-3.42;70.44;101213.95;107763;1271;112716;-69
2022/02/13 03:40:28;;;;;;;43.90;19.40;;;;;;;-3.45;70.44;101207.87;106452;1271;108960;-71
2022/02/13 03:43:00;;;;;;;40.20;18.50;;;;;;;-3.48;70.62;101203.18;106116;1271;138809;-69
2022/02/13 03:45:32;;;;;;;35.50;18.20;;;;;;;-3.48;70.50;101205.55;106224;1271;97847;-69
2022/02/13 03:48:05;;;;;;;38.90;19.40;;;;;;;-3.48;70.66;101200.44;106130;1271;139484;-70
2022/02/13 03:50:38;;;;;;;44.50;18.60;;;;;;;-3.47;70.55;101199.48;107752;1271;112766;-70
2022/02/13 03:53:10;;;;;;;39.10;18.90;;;;;;;-3.47;70.65;101190.11;107672;1271;138621;-70
2022/02/13 03:55:42;;;;;;;38.10;18.50;;;;;;;-3.47;70.09;101188.05;107694;1271;108757;-70
2022/02/13 03:58:15;;;;;;;42.30;19.80;;;;;;;-3.50;70.48;101189.33;107780;1271;96182;-69
2022/02/13 04:00:47;;;;;;;38.10;19.60;;;;;;;-3.52;70.57;101185.52;107694;1271;139483;-69
2022/02/13 04:03:19;;;;;;;34.40;17.60;;;;;;;-3.53;70.51;101183.41;107643;1273;112521;-70
2022/02/13 04:05:54;;;;;;;33.20;17.10;;;;;;;-3.53;70.51;101183.40;107585;1273;139571;-70
2022/02/13 04:08:26;;;;;;;33.70;16.30;;;;;;;-3.54;70.42;101181.86;107682;1272;108977;-70
2022/02/13 04:10:58;;;;;;;33.80;17.10;;;;;;;-3.53;70.08;101181.36;107573;1273;139387;-69
2022/02/13 04:13:30;;;;;;;36.20;18.30;;;;;;;-3.52;70.34;101175.98;107758;1272;96145;-70
2022/02/13 04:16:03;;;;;;;36.20;17.70;;;;;;;-3.52;70.22;101167.66;107746;1273;110009;-69
2022/02/13 04:18:35;;;;;;;32.10;16.30;;;;;;;-3.52;70.52;101161.85;107583;1271;138381;-70
2022/02/13 04:21:07;;;;;;;33.90;16.90;;;;;;;-3.55;70.62;101170.09;107704;1273;109055;-70
2022/02/13 04:23:39;;;;;;;30.80;16.30;;;;;;;-3.56;70.51;101161.19;107393;1273;139528;-70
2022/02/13 04:26:11;;;;;;;34.70;16.40;;;;;;;-3.57;70.33;101163.88;106125;1273;97932;-70
2022/02/13 04:28:43;;;;;;;29.60;15.80;;;;;;;-3.57;70.63;101155.41;106042;1273;138979;-70
2022/02/13 04:31:15;;;;;;;31.10;15.70;;;;;;;-3.57;70.53;101148.09;106157;1273;109222;-70
2022/02/13 04:33:47;;;;;;;30.20;15.10;;;;;;;-3.56;70.58;101146.06;106084;1273;108720;-70
2022/02/13 04:36:20;;;;;;;35.70;16.10;;;;;;;-3.56;70.50;101137.75;106004;1273;139760;-69
2022/02/13 04:38:52;;;;;;;28.30;14.90;;;;;;;-3.56;70.63;101138.59;107671;1273;96099;-71
2022/02/13 04:41:24;;;;;;;30.10;15.80;;;;;;;-3.55;70.50;101138.47;107448;1273;140365;-70
2022/02/13 04:43:56;;;;;;;33.50;15.10;;;;;;;-3.56;70.62;101139.29;107419;1273;107892;-68
2022/02/13 04:46:29;;;;;;;30.80;15.00;;;;;;;-3.55;70.79;101137.79;106097;1273;109043;-70
2022/02/13 04:49:01;;;;;;;29.10;15.00;;;;;;;-3.55;70.61;101136.27;106015;1273;138633;-69
2022/02/13 04:51:33;;;;;;;27.10;13.90;;;;;;;-3.56;70.54;101135.21;106148;1273;97829;-69
2022/02/13 04:54:05;;;;;;;30.20;14.60;;;;;;;-3.56;70.72;101130.42;106890;1273;139168;-70
2022/02/13 04:56:37;;;;;;;28.20;13.80;;;;;;;-3.57;70.76;101125.98;106240;1273;109293;-69
2022/02/13 04:59:11;;;;;;;29.50;14.70;;;;;;;-3.57;70.73;101122.59;106024;1273;138379;-69
2022/02/13 05:01:42;;;;;;;26.90;13.60;;;;;;;-3.57;70.58;101126.31;107643;1273;96178;-70
2022/02/13 05:04:15;;;;;;;29.50;14.50;;;;;;;-3.59;70.61;101121.67;107673;1273;96153;-70
2022/02/13 05:06:46;;;;;;;30.00;13.60;;;;;;;-3.58;70.54;101122.36;107596;1273;139174;-71
2022/02/13 05:09:18;;;;;;;26.20;13.90;;;;;;;-3.58;70.68;101116.42;107639;1273;107869;-70
2022/02/13 05:11:50;;;;;;;24.40;12.90;;;;;;;-3.56;70.88;101118.19;107606;1273;139799;-70
2022/02/13 05:14:22;;;;;;;25.40;13.30;;;;;;;-3.54;70.89;101114.53;107211;1273;96901;-70
2022/02/13 05:16:54;;;;;;;27.80;13.10;;;;;;;-3.51;70.35;101115.34;105993;1274;139644;-69
2022/02/13 05:19:26;;;;;;;27.70;13.60;;;;;;;-3.48;70.40;101109.31;106153;1273;112539;-69
2022/02/13 05:21:58;;;;;;;25.40;12.50;;;;;;;-3.45;70.34;101108.23;106084;1273;108868;-69
2022/02/13 05:24:36;;;;;;;27.90;13.30;;;;;;;-3.44;70.11;101107.60;106070;1273;139010;-69
2022/02/13 05:27:08;;;;;;;23.80;12.50;;;;;;;-3.43;70.33;101108.13;106049;1273;97823;-69
2022/02/13 05:29:41;;;;;;;26.60;13.50;;;;;;;-3.43;70.33;101102.02;105975;1273;138612;-69
2022/02/13 05:32:13;;;;;;;25.50;12.30;;;;;;;-3.42;70.32;101099.66;106081;1274;112476;-70
2022/02/13 05:34:45;;;;;;;25.20;12.60;;;;;;;-3.42;70.22;101096.44;105977;1274;139113;-69
2022/02/13 05:37:17;;;;;;;23.80;11.90;;;;;;;-3.41;70.29;101100.20;107597;1273;108987;-69
2022/02/13 05:39:49;;;;;;;25.20;12.20;;;;;;;-3.40;70.34;101098.41;106518;1274;97834;-68
2022/02/13 05:42:23;;;;;;;24.20;12.60;;;;;;;-3.39;70.10;101099.49;105980;1274;138943;-69
2022/02/13 05:44:56;;;;;;;28.50;12.50;;;;;;;-3.37;69.87;101095.65;106031;1273;112160;-69
2022/02/13 05:47:28;;;;;;;23.50;12.10;;;;;;;-3.34;70.05;101100.16;106008;1273;138847;-69
2022/02/13 05:50:00;;;;;;;21.90;12.70;;;;;;;-3.33;70.15;101097.83;106043;1274;108403;-68
2022/02/13 05:52:33;;;;;;;23.80;12.10;;;;;;;-3.31;70.23;101091.10;106097;1273;97862;-69
2022/02/13 05:55:05;;;;;;;24.60;12.60;;;;;;;-3.28;69.96;101092.88;106009;1273;138604;-67
2022/02/13 05:57:40;;;;;;;25.40;12.50;;;;;;;-3.27;70.00;101091.39;106707;1273;112247;-68
2022/02/13 06:00:14;;;;;;;26.20;13.10;;;;;;;-3.25;69.86;101093.67;105901;1274;140316;-69
2022/02/13 06:02:46;;;;;;;27.30;13.30;;;;;;;-3.24;69.97;101092.38;107715;1273;108140;-69
2022/02/13 06:05:18;;;;;;;21.50;11.70;;;;;;;-3.19;69.90;101087.45;106574;1273;139107;-68
2022/02/13 06:07:51;;;;;;;26.50;12.60;;;;;;;-3.13;69.55;101089.91;106225;1271;97852;-69
2022/02/13 06:10:23;;;;;;;21.80;12.00;;;;;;;-3.04;69.31;101089.38;106177;1273;111939;-68
2022/02/13 06:12:55;;;;;;;27.40;12.90;;;;;;;-2.95;69.22;101086.29;106047;1273;138178;-68
2022/02/13 06:15:27;;;;;;;24.50;13.10;;;;;;;-2.88;69.20;101088.07;106142;1273;108701;-69
2022/02/13 06:17:59;;;;;;;27.20;12.90;;;;;;;-2.79;68.56;101086.69;106087;1274;138217;-68
2022/02/13 06:20:32;;;;;;;24.90;12.80;;;;;;;-2.68;68.70;101084.34;106119;1274;97775;-68
2022/02/13 06:23:04;;;;;;;23.00;12.80;;;;;;;-2.58;68.43;101082.48;106067;1274;139344;-71
2022/02/13 06:25:36;;;;;;;27.40;13.90;;;;;;;-2.47;67.96;101083.03;106178;1274;109022;-70
2022/02/13 06:28:09;;;;;;;23.90;12.90;;;;;;;-2.36;67.54;101075.56;106061;1274;107877;-68
2022/02/13 06:30:43;;;;;;;25.90;12.70;;;;;;;-2.23;67.54;101073.27;105988;1274;140237;-70
2022/02/13 06:33:15;;;;;;;22.80;12.70;;;;;;;-2.08;67.12;101065.07;106183;1273;97910;-69
2022/02/13 06:35:47;;;;;;;25.50;13.30;;;;;;;-1.91;66.52;101065.59;105999;1273;138605;-68
2022/02/13 06:38:19;;;;;;;24.40;13.00;;;;;;;-1.73;66.59;101065.48;106160;1274;108415;-69
2022/02/13 06:40:51;;;;;;;25.40;13.20;;;;;;;-1.53;65.76;101069.15;106080;1274;138357;-69
2022/02/13 06:43:23;;;;;;;22.90;13.00;;;;;;;-1.31;65.18;101069.80;106109;1274;97869;-70
2022/02/13 06:45:55;;;;;;;21.20;11.70;;;;;;;-1.07;64.42;101067.23;106107;1274;97820;-69
2022/02/13 06:48:29;;;;;;;25.40;12.70;;;;;;;-0.83;63.71;101064.32;106020;1271;137935;-69
2022/02/13 06:51:01;;;;;;;22.80;12.80;;;;;;;-0.63;63.17;101064.68;106130;1274;109144;-70
2022/02/13 06:53:34;;;;;;;23.30;12.00;;;;;;;-0.46;62.96;101065.11;106055;1273;138006;-69
2022/02/13 06:56:07;;;;;;;23.60;13.50;;;;;;;-0.26;61.70;101060.68;106129;1274;97904;-70
2022/02/13 06:58:39;;;;;;;24.50;12.70;;;;;;;0.03;60.96;101048.03;107712;1273;95991;-69
2022/02/13 07:01:11;;;;;;;24.20;13.10;;;;;;;0.43;60.24;101053.05;107616;1274;138869;-70
2022/02/13 07:03:43;;;;;;;25.40;13.00;;;;;;;0.79;59.04;101047.46;107707;1272;108936;-70
2022/02/13 07:06:16;;;;;;;23.10;12.90;;;;;;;1.11;58.24;101046.56;107596;1271;138294;-70
2022/02/13 07:08:49;;;;;;;23.80;12.80;;;;;;;1.47;57.71;101042.77;107727;1273;96012;-70
2022/02/13 07:11:22;;;;;;;25.00;12.90;;;;;;;1.74;57.75;101037.05;106372;1273;137965;-69
2022/02/13 07:13:55;;;;;;;24.30;12.90;;;;;;;1.78;57.83;101037.79;106141;1274;112627;-71
2022/02/13 07:16:29;;;;;;;23.90;12.90;;;;;;;1.66;57.65;101036.23;106166;1272;109002;-69
2022/02/13 07:19:02;;;;;;;21.30;13.40;;;;;;;1.56;57.09;101037.94;106058;1273;138175;-70
2022/02/13 07:21:34;;;;;;;25.00;12.80;;;;;;;1.47;57.33;101035.58;106169;1274;97900;-69
2022/02/13 07:24:07;;;;;;;22.40;13.70;;;;;;;1.48;56.86;101032.17;106073;1274;138024;-69
2022/02/13 07:26:39;;;;;;;22.70;12.70;;;;;;;1.58;56.93;101026.83;107702;1272;112738;-70
2022/02/13 07:29:13;;;;;;;23.60;13.50;;;;;;;1.71;57.08;101025.00;107612;1272;138075;-71
2022/02/13 07:31:45;;;;;;;21.10;13.70;;;;;;;1.89;56.40;101021.67;106947;1271;108947;-69
2022/02/13 07:34:17;;;;;;;22.80;13.20;;;;;;;2.05;55.68;101015.92;106132;1274;97848;-69
2022/02/13 07:36:54;;;;;;;21.50;13.00;;;;;;;2.16;55.65;101021.75;105979;1273;137771;-70
2022/02/13 07:39:25;;;;;;;;;;;;;;;2.35;55.52;101014.63;106132;1274;112064;-69
2022/02/13 07:41:57;;;;;;;21.50;12.50;;;;;;;2.54;54.79;101016.07;106011;1274;124072;-70
2022/02/13 07:44:29;;;;;;;23.30;13.00;;;;;;;2.72;54.42;101005.67;106615;1271;107673;-70
2022/02/13 07:47:01;;;;;;;23.10;13.70;;;;;;;3.01;53.06;101006.34;106048;1274;138133;-69
2022/02/13 07:49:33;;;;;;;22.40;12.80;;;;;;;3.33;52.91;100996.70;106114;1274;97832;-69
2022/02/13 07:52:07;;;;;;;20.50;13.10;;;;;;;3.68;51.80;100988.56;106142;1272;112409;-69
2022/02/13 07:54:39;;;;;;;21.80;12.60;;;;;;;3.98;50.77;100988.08;107616;1273;138497;-70
2022/02/13 07:57:11;;;;;;;23.10;12.90;;;;;;;4.15;49.86;100989.91;107680;1271;107694;-69
2022/02/13 07:59:44;;;;;;;22.40;12.80;;;;;;;4.23;49.20;100982.04;107638;1271;139604;-70
2022/02/13 08:02:18;;;;;;;20.90;12.80;;;;;;;4.33;49.40;100985.19;107739;1271;96887;-71
2022/02/13 08:04:50;;;;;;;19.60;12.50;;;;;;;4.65;48.56;100981.55;107734;1273;112494;-70
2022/02/13 08:07:22;;;;;;;22.00;13.00;;;;;;;5.03;47.48;100979.94;107638;1273;139369;-70
2022/02/13 08:09:54;;;;;;;20.60;13.20;;;;;;;5.44;47.18;100985.85;107733;1271;108182;-69
2022/02/13 08:12:26;;;;;;;23.90;13.70;;;;;;;5.85;45.86;100974.64;107617;1271;137815;-70
2022/02/13 08:14:58;;;;;;;20.40;13.50;;;;;;;6.31;45.82;100963.85;107769;1273;96337;-70
2022/02/13 08:17:30;;;;;;;20.20;12.80;;;;;;;6.70;44.99;100964.05;106774;1274;137920;-68
2022/02/13 08:20:07;;;;;;;20.80;13.30;;;;;;;7.06;43.60;100945.33;106175;1274;108973;-69
2022/02/13 08:22:40;;;;;;;22.60;13.50;;;;;;;7.38;43.51;100948.91;107720;1273;107863;-69
2022/02/13 08:25:13;;;;;;;20.90;12.70;;;;;;;7.63;42.41;100945.08;107573;1272;138802;-69
2022/02/13 08:27:45;;;;;;;20.50;12.80;;;;;;;7.79;42.29;100944.39;106441;1271;97726;-70
2022/02/13 08:30:19;;;;;;;22.40;12.60;;;;;;;8.05;41.96;100932.53;106107;1274;137924;-69
2022/02/13 08:32:52;;;;;;;22.30;12.70;;;;;;;8.26;41.02;100925.02;106164;1273;107936;-68
2022/02/13 08:35:24;;;;;;;20.00;12.60;;;;;;;8.36;40.63;100921.96;106080;1273;139218;-70
2022/02/13 08:37:56;;;;;;;21.70;12.80;;;;;;;8.56;40.62;100924.33;107640;1273;96246;-70
2022/02/13 08:40:28;;;;;;;19.80;12.70;;;;;;;8.60;41.31;100930.34;107654;1272;96009;-70
2022/02/13 08:43:01;;;;;;;21.20;13.30;;;;;;;8.63;40.52;100929.80;107605;1271;137588;-70
2022/02/13 08:45:35;;;;;;;19.60;12.20;;;;;;;8.68;41.43;100918.96;107756;1272;108956;-70
2022/02/13 08:48:07;;;;;;;20.90;12.40;;;;;;;8.92;40.68;100926.26;107578;1271;138237;-70
2022/02/13 08:50:40;;;;;;;19.30;12.30;;;;;;;9.23;39.97;100927.86;107551;1271;97882;-69
2022/02/13 08:53:14;;;;;;;18.80;12.30;;;;;;;9.41;38.55;100923.77;106036;1271;137890;-69
2022/02/13 08:55:46;;;;;;;18.20;11.70;;;;;;;9.49;38.94;100930.21;106167;1271;112441;-69
2022/02/13 08:58:20;;;;;;;19.40;11.90;;;;;;;9.46;38.10;100924.02;106217;1274;108341;-69
2022/02/13 09:00:53;;;;;;;19.10;11.50;;;;;;;9.42;38.06;100921.14;106047;1272;138306;-71
2022/02/13 09:03:27;;;;;;;17.10;11.60;;;;;;;9.42;38.02;100917.14;106095;1273;97822;-69
2022/02/13 09:05:59;;;;;;;18.80;11.70;;;;;;;9.50;37.84;100905.55;106130;1273;137888;-69
2022/02/13 09:08:31;;;;;;;17.80;11.70;;;;;;;9.60;37.30;100913.20;106120;1271;110519;-70
2022/02/13 09:11:03;;;;;;;16.20;10.80;;;;;;;9.57;37.53;100906.65;105994;1273;138826;-69
2022/02/13 09:13:35;;;;;;;14.70;10.80;;;;;;;9.63;37.36;100896.99;106233;1272;108941;-69
2022/02/13 09:16:08;;;;;;;17.60;11.00;;;;;;;9.77;37.30;100897.26;106138;1273;97980;-69
2022/02/13 09:18:41;;;;;;;19.50;11.00;;;;;;;9.87;37.20;100896.55;107603;1272;138468;-68
2022/02/13 09:21:13;;;;;;;18.50;11.80;;;;;;;9.78;36.79;100891.69;107238;1273;113195;-70
2022/02/13 09:23:45;;;;;;;17.60;10.70;;;;;;;9.77;36.40;100905.42;106006;1273;138375;-69
2022/02/13 09:26:19;;;;;;;18.00;10.90;;;;;;;9.68;36.15;100896.72;106108;1272;108471;-69
2022/02/13 09:28:50;;;;;;;21.80;11.60;;;;;;;9.65;36.89;100883.06;106128;1271;98150;-69
2022/02/13 09:31:23;;;;;;;18.00;11.40;;;;;;;9.76;36.33;100890.70;106035;1273;137771;-69
2022/02/13 09:33:55;;;;;;;19.10;11.10;;;;;;;9.63;36.02;100878.92;106121;1273;112203;-69
2022/02/13 09:36:27;;;;;;;19.10;10.70;;;;;;;9.67;37.22;100877.30;106039;1272;138106;-69
2022/02/13 09:38:59;;;;;;;22.20;11.50;;;;;;;9.75;36.22;100865.00;106060;1271;108710;-70
2022/02/13 09:41:31;;;;;;;16.70;10.80;;;;;;;9.48;36.46;100869.84;106088;1273;138192;-69
2022/02/13 09:44:03;;;;;;;19.20;11.00;;;;;;;9.23;36.85;100864.02;106145;1273;97882;-69
2022/02/13 09:46:35;;;;;;;20.10;11.30;;;;;;;9.29;37.55;100856.79;106066;1273;112557;-70
2022/02/13 09:49:08;;;;;;;16.90;11.30;;;;;;;9.11;36.66;100848.09;107344;1273;138529;-70
2022/02/13 09:51:40;;;;;;;18.80;11.30;;;;;;;8.53;36.24;100847.74;107628;1273;106222;-70
2022/02/13 09:54:12;;;;;;;17.30;10.60;;;;;;;7.88;38.29;100839.38;107475;1274;139594;-70
2022/02/13 09:56:47;;;;;;;18.40;9.80;;;;;;;7.71;38.37;100849.95;107674;1273;96204;-69
2022/02/13 09:59:19;;;;;;;20.20;11.00;;;;;;;7.54;38.82;100840.27;107605;1272;138255;-69
2022/02/13 10:01:51;;;;;;;18.10;10.70;;;;;;;7.29;39.88;100837.41;107684;1271;109103;-70
2022/02/13 10:04:43;;;;;;;20.20;10.30;;;;;;;6.96;39.24;100831.81;107704;1272;107969;-70
2022/02/13 10:07:20;;;;;;;18.60;10.80;;;;;;;6.40;40.49;100814.59;107116;1273;138300;-70
2022/02/13 10:09:57;;;;;;;;;;;;;;;6.02;41.21;100822.55;106116;1273;98315;-70
2022/02/13 10:12:39;;;;;;;17.50;10.60;;;;;;;5.75;42.20;100813.99;106059;1273;123814;-70
2022/02/13 10:15:31;;;;;;;17.30;10.60;;;;;;;5.92;42.26;100814.46;106135;1273;108456;-70
2022/02/13 10:18:07;;;;;;;21.20;10.30;;;;;;;6.21;42.00;100803.46;107530;1272;138037;-71
2022/02/13 10:20:41;;;;;;;21.90;10.70;;;;;;;6.30;42.25;100796.33;107635;1271;96762;-71
2022/02/13 10:23:14;;;;;;;17.90;10.30;;;;;;;6.62;42.04;100795.09;107587;1273;138293;-70
2022/02/13 10:25:46;;;;;;;16.70;10.00;;;;;;;6.85;42.09;100788.52;107634;1273;110364;-70
2022/02/13 10:28:19;;;;;;;17.00;10.30;;;;;;;7.14;41.67;100783.24;107641;1273;108020;-70
2022/02/13 10:30:52;;;;;;;15.20;9.20;;;;;;;7.31;41.47;100775.11;107539;1273;138091;-69
2022/02/13 10:33:26;;;;;;;14.90;9.50;;;;;;;7.58;41.29;100781.23;106628;1273;97842;-70
2022/02/13 10:36:13;;;;;;;13.80;9.30;;;;;;;7.86;40.84;100771.70;106077;1273;137977;-70
2022/02/13 10:38:46;;;;;;;15.00;8.90;;;;;;;8.02;39.88;100768.91;106103;1273;112486;-71
2022/02/13 10:41:20;;;;;;;15.30;9.00;;;;;;;7.99;39.51;100763.05;105938;1274;138259;-69
2022/02/13 10:43:59;;;;;;;13.90;8.80;;;;;;;8.08;40.18;100755.83;107598;1273;107845;-70
2022/02/13 10:46:34;;;;;;;;;;;;;;;8.30;39.41;100774.06;107683;1273;96131;-70
2022/02/13 10:49:07;;;;;;;13.40;7.80;;;;;;;8.30;38.41;100772.00;107591;1273;123994;-70
2022/02/13 10:51:39;;;;;;;12.40;7.60;;;;;;;8.19;37.75;100769.36;107689;1271;112891;-70
2022/02/13 10:54:12;;;;;;;13.60;8.30;;;;;;;8.16;38.74;100755.36;106074;1273;138132;-70
2022/02/13 10:56:44;;;;;;;10.40;7.60;;;;;;;8.22;38.95;100750.44;106170;1272;108911;-70
2022/02/13 10:59:17;;;;;;;13.60;8.00;;;;;;;8.25;38.68;100740.52;106031;1273;138371;-70
2022/02/13 11:01:51;;;;;;;15.50;8.50;;;;;;;8.27;38.44;100742.58;106165;1271;97846;-70
2022/02/13 11:04:27;;;;;;;14.30;8.90;;;;;;;8.19;37.91;100753.78;106126;1273;111136;-70
2022/02/13 11:07:01;;;;;;;16.20;9.40;;;;;;;8.10;38.01;100735.02;106005;1274;137927;-70
2022/02/13 11:09:35;;;;;;;14.30;8.80;;;;;;;8.15;38.97;100739.45;106168;1271;108566;-70
2022/02/13 11:12:08;;;;;;;16.20;8.80;;;;;;;8.24;39.67;100730.14;105952;1273;137851;-69
2022/02/13 11:14:41;;;;;;;14.20;8.60;;;;;;;8.55;40.25;100729.36;107711;1271;96155;-72
2022/02/13 11:17:30;;;;;;;15.60;9.90;;;;;;;8.93;40.05;100723.51;107649;1271;138843;-69
2022/02/13 11:20:05;;;;;;;15.40;9.40;;;;;;;9.13;38.71;100713.42;107388;1273;107730;-69
2022/02/13 11:22:39;;;;;;;14.40;9.90;;;;;;;9.23;39.13;100705.95;106479;1273;107833;-71
2022/02/13 11:25:12;;;;;;;13.40;8.90;;;;;;;9.17;37.40;100710.41;105998;1273;137829;-70